createdAt,value
2023-04-16T00:00:06.901Z,94585.00
2023-04-16T00:01:06.930Z,94587.00
2023-04-16T00:02:07.094Z,94585.00
2023-04-16T00:03:07.332Z,94585.00
2023-04-16T00:04:07.393Z,94589.00
2023-04-16T00:05:07.167Z,94589.00
2023-04-16T00:06:07.203Z,94587.00
2023-04-16T00:07:07.186Z,94585.00
2023-04-16T00:08:07.242Z,94585.00
2023-04-16T00:09:07.544Z,94587.00
2023-04-16T00:10:07.348Z,94591.00
2023-04-16T00:11:07.453Z,94591.00
2023-04-16T00:12:07.459Z,94591.00
2023-04-16T00:13:07.501Z,94591.00
2023-04-16T00:14:07.514Z,94589.00
2023-04-16T00:15:07.588Z,94589.00
2023-04-16T00:16:07.630Z,94591.00
2023-04-16T00:17:07.713Z,94591.00
2023-04-16T00:18:07.661Z,94591.00
2023-04-16T00:19:07.842Z,94591.00
2023-04-16T00:20:07.782Z,94587.00
2023-04-16T00:21:07.794Z,94587.00
2023-04-16T00:22:08.012Z,94585.00
2023-04-16T00:23:08.000Z,94585.00
2023-04-16T00:24:07.950Z,94587.00
2023-04-16T00:25:08.012Z,94589.00
2023-04-16T00:26:08.052Z,94589.00
2023-04-16T00:27:08.078Z,94589.00
2023-04-16T00:28:09.517Z,94589.00
2023-04-16T00:29:08.460Z,94593.00
2023-04-16T00:30:08.130Z,94593.00
2023-04-16T00:31:08.125Z,94591.00
2023-04-16T00:32:08.209Z,94593.00
2023-04-16T00:33:08.051Z,94593.00
2023-04-16T00:34:08.113Z,94591.00
2023-04-16T00:35:08.142Z,94593.00
2023-04-16T00:36:08.036Z,94593.00
2023-04-16T00:37:08.067Z,94591.00
2023-04-16T00:38:08.011Z,94591.00
2023-04-16T00:39:08.329Z,94591.00
2023-04-16T00:40:08.026Z,94593.00
2023-04-16T00:41:08.006Z,94593.00
2023-04-16T00:42:08.052Z,94593.00
2023-04-16T00:43:07.980Z,94595.00
2023-04-16T00:44:08.032Z,94595.00
2023-04-16T00:45:07.982Z,94595.00
2023-04-16T00:46:08.013Z,94593.00
2023-04-16T00:47:07.982Z,94593.00
2023-04-16T00:48:07.981Z,94597.00
2023-04-16T00:49:08.268Z,94599.00
2023-04-16T00:50:07.953Z,94595.00
2023-04-16T00:51:07.965Z,94595.00
2023-04-16T00:52:07.969Z,94595.00
2023-04-16T00:53:07.906Z,94597.00
2023-04-16T00:54:07.914Z,94597.00
2023-04-16T00:55:07.978Z,94595.00
2023-04-16T00:56:07.927Z,94595.00
2023-04-16T00:57:07.908Z,94595.00
2023-04-16T00:58:08.350Z,94595.00
2023-04-16T00:59:09.040Z,94595.00
2023-04-16T01:00:07.950Z,94597.00
2023-04-16T01:01:07.897Z,94597.00
2023-04-16T01:02:07.931Z,94597.00
2023-04-16T01:03:07.996Z,94599.00
2023-04-16T01:04:08.027Z,94599.00
2023-04-16T01:05:07.862Z,94599.00
2023-04-16T01:06:07.877Z,94597.00
2023-04-16T01:07:07.908Z,94597.00
2023-04-16T01:08:07.906Z,94593.00
2023-04-16T01:09:08.232Z,94593.00
2023-04-16T01:10:08.052Z,94589.00
2023-04-16T01:11:08.036Z,94589.00
2023-04-16T01:12:08.231Z,94591.00
2023-04-16T01:13:08.121Z,94589.00
2023-04-16T01:14:08.185Z,94591.00
2023-04-16T01:15:08.225Z,94589.00
2023-04-16T01:16:08.404Z,94591.00
2023-04-16T01:17:08.316Z,94589.00
2023-04-16T01:18:08.324Z,94591.00
2023-04-16T01:19:08.659Z,94593.00
2023-04-16T01:20:08.435Z,94597.00
2023-04-16T01:21:08.484Z,94593.00
2023-04-16T01:22:08.517Z,94593.00
2023-04-16T01:23:08.559Z,94597.00
2023-04-16T01:24:08.828Z,94597.00
2023-04-16T01:25:08.709Z,94597.00
2023-04-16T01:26:08.712Z,94595.00
2023-04-16T01:27:08.724Z,94595.00
2023-04-16T01:28:08.761Z,94597.00
2023-04-16T01:29:09.020Z,94601.00
2023-04-16T01:30:10.002Z,94601.00
2023-04-16T01:31:08.961Z,94603.00
2023-04-16T01:32:09.075Z,94603.00
2023-04-16T01:33:09.002Z,94603.00
2023-04-16T01:34:09.020Z,94605.00
2023-04-16T01:35:09.095Z,94607.00
2023-04-16T01:36:09.135Z,94605.00
2023-04-16T01:37:09.176Z,94607.00
2023-04-16T01:38:09.223Z,94605.00
2023-04-16T01:39:09.394Z,94605.00
2023-04-16T01:40:09.285Z,94607.00
2023-04-16T01:41:09.325Z,94609.00
2023-04-16T01:42:09.373Z,94609.00
2023-04-16T01:43:09.440Z,94607.00
2023-04-16T01:44:09.455Z,94609.00
2023-04-16T01:45:09.498Z,94609.00
2023-04-16T01:46:09.641Z,94609.00
2023-04-16T01:47:09.576Z,94611.00
2023-04-16T01:48:09.652Z,94611.00
2023-04-16T01:49:09.817Z,94613.00
2023-04-16T01:50:09.761Z,94611.00
2023-04-16T01:51:09.754Z,94613.00
2023-04-16T01:52:09.828Z,94615.00
2023-04-16T01:53:09.882Z,94615.00
2023-04-16T01:54:09.862Z,94617.00
2023-04-16T01:55:09.910Z,94617.00
2023-04-16T01:56:09.960Z,94619.00
2023-04-16T01:57:10.023Z,94619.00
2023-04-16T01:58:10.233Z,94619.00
2023-04-16T01:59:10.364Z,94619.00
2023-04-16T02:00:10.133Z,94620.00
2023-04-16T02:01:10.256Z,94620.00
2023-04-16T02:02:10.454Z,94620.00
2023-04-16T02:03:10.350Z,94622.00
2023-04-16T02:04:10.367Z,94619.00
2023-04-16T02:05:10.432Z,94622.00
2023-04-16T02:06:10.397Z,94619.00
2023-04-16T02:07:10.488Z,94617.00
2023-04-16T02:08:10.505Z,94617.00
2023-04-16T02:09:10.643Z,94619.00
2023-04-16T02:10:10.612Z,94619.00
2023-04-16T02:11:10.662Z,94619.00
2023-04-16T02:12:10.676Z,94620.00
2023-04-16T02:13:10.738Z,94620.00
2023-04-16T02:14:10.743Z,94620.00
2023-04-16T02:15:10.831Z,94617.00
2023-04-16T02:16:10.874Z,94617.00
2023-04-16T02:17:10.861Z,94620.00
2023-04-16T02:18:11.043Z,94620.00
2023-04-16T02:19:11.108Z,94620.00
2023-04-16T02:20:10.985Z,94620.00
2023-04-16T02:21:11.042Z,94622.00
2023-04-16T02:22:11.157Z,94626.00
2023-04-16T02:23:11.162Z,94626.00
2023-04-16T02:24:11.220Z,94634.00
2023-04-16T02:25:11.290Z,94634.00
2023-04-16T02:26:11.275Z,94636.00
2023-04-16T02:27:11.405Z,94634.00
2023-04-16T02:28:11.452Z,94634.00
2023-04-16T02:29:11.711Z,94634.00
2023-04-16T02:30:11.612Z,94636.00
2023-04-16T02:31:11.583Z,94634.00
2023-04-16T02:32:11.698Z,94636.00
2023-04-16T02:33:11.661Z,94634.00
2023-04-16T02:34:11.736Z,94638.00
2023-04-16T02:35:11.777Z,94634.00
2023-04-16T02:36:11.786Z,94634.00
2023-04-16T02:37:11.840Z,94626.00
2023-04-16T02:38:11.837Z,94634.00
2023-04-16T02:39:11.874Z,94626.00
2023-04-16T02:40:11.910Z,94634.00
2023-04-16T02:41:12.006Z,94636.00
2023-04-16T02:42:12.072Z,94636.00
2023-04-16T02:43:12.074Z,94636.00
2023-04-16T02:44:12.119Z,94638.00
2023-04-16T02:45:12.179Z,94640.00
2023-04-16T02:46:12.283Z,94642.00
2023-04-16T02:47:12.298Z,94642.00
2023-04-16T02:48:12.401Z,94642.00
2023-04-16T02:49:12.356Z,94642.00
2023-04-16T02:50:12.392Z,94642.00
2023-04-16T02:51:12.534Z,94640.00
2023-04-16T02:52:14.369Z,94640.00
2023-04-16T02:53:12.493Z,94642.00
2023-04-16T02:54:12.489Z,94640.00
2023-04-16T02:55:12.507Z,94644.00
2023-04-16T02:56:12.450Z,94646.00
2023-04-16T02:57:12.442Z,94646.00
2023-04-16T02:58:12.464Z,94646.00
2023-04-16T02:59:12.447Z,94648.00
2023-04-16T03:00:12.430Z,94648.00
2023-04-16T03:01:12.468Z,94650.00
2023-04-16T03:02:12.443Z,94650.00
2023-04-16T03:03:12.438Z,94652.00
2023-04-16T03:04:12.431Z,94648.00
2023-04-16T03:05:12.485Z,94652.00
2023-04-16T03:06:12.366Z,94652.00
2023-04-16T03:07:12.396Z,94654.00
2023-04-16T03:08:12.463Z,94654.00
2023-04-16T03:09:12.501Z,94656.00
2023-04-16T03:10:12.367Z,94656.00
2023-04-16T03:11:12.327Z,94656.00
2023-04-16T03:12:12.353Z,94654.00
2023-04-16T03:13:12.315Z,94656.00
2023-04-16T03:14:12.350Z,94654.00
2023-04-16T03:15:12.311Z,94654.00
2023-04-16T03:16:12.362Z,94656.00
2023-04-16T03:17:12.345Z,94658.00
2023-04-16T03:18:12.309Z,94658.00
2023-04-16T03:19:12.509Z,94660.00
2023-04-16T03:20:12.328Z,94662.00
2023-04-16T03:21:12.293Z,94660.00
2023-04-16T03:22:12.447Z,94664.00
2023-04-16T03:23:12.310Z,94664.00
2023-04-16T03:24:12.241Z,94662.00
2023-04-16T03:25:12.251Z,94665.00
2023-04-16T03:26:12.247Z,94665.00
2023-04-16T03:27:12.267Z,94664.00
2023-04-16T03:28:12.220Z,94665.00
2023-04-16T03:29:12.224Z,94664.00
2023-04-16T03:30:12.225Z,94662.00
2023-04-16T03:31:12.281Z,94662.00
2023-04-16T03:32:12.234Z,94658.00
2023-04-16T03:33:12.276Z,94660.00
2023-04-16T03:34:12.200Z,94656.00
2023-04-16T03:35:12.223Z,94656.00
2023-04-16T03:36:12.188Z,94654.00
2023-04-16T03:37:12.276Z,94654.00
2023-04-16T03:38:12.302Z,94656.00
2023-04-16T03:39:12.444Z,94658.00
2023-04-16T03:40:12.451Z,94658.00
2023-04-16T03:41:12.512Z,94662.00
2023-04-16T03:42:12.584Z,94664.00
2023-04-16T03:43:12.657Z,94664.00
2023-04-16T03:44:12.653Z,94665.00
2023-04-16T03:45:12.704Z,94665.00
2023-04-16T03:46:12.780Z,94664.00
2023-04-16T03:47:12.839Z,94664.00
2023-04-16T03:48:12.870Z,94664.00
2023-04-16T03:49:12.987Z,94664.00
2023-04-16T03:50:12.998Z,94665.00
2023-04-16T03:51:13.036Z,94665.00
2023-04-16T03:52:13.088Z,94665.00
2023-04-16T03:53:13.154Z,94667.00
2023-04-16T03:54:13.218Z,94669.00
2023-04-16T03:55:13.244Z,94669.00
2023-04-16T03:56:13.287Z,94675.00
2023-04-16T03:57:13.411Z,94669.00
2023-04-16T03:58:13.399Z,94669.00
2023-04-16T03:59:13.504Z,94671.00
2023-04-16T04:00:13.550Z,94671.00
2023-04-16T04:01:13.565Z,94669.00
2023-04-16T04:02:13.880Z,94669.00
2023-04-16T04:03:13.835Z,94669.00
2023-04-16T04:04:13.826Z,94671.00
2023-04-16T04:05:13.820Z,94669.00
2023-04-16T04:06:13.882Z,94669.00
2023-04-16T04:07:13.948Z,94671.00
2023-04-16T04:08:13.985Z,94671.00
2023-04-16T04:09:14.093Z,94673.00
2023-04-16T04:10:14.089Z,94675.00
2023-04-16T04:11:14.179Z,94677.00
2023-04-16T04:12:14.206Z,94681.00
2023-04-16T04:13:14.262Z,94681.00
2023-04-16T04:14:14.335Z,94683.00
2023-04-16T04:15:14.382Z,94683.00
2023-04-16T04:16:14.465Z,94683.00
2023-04-16T04:17:14.498Z,94683.00
2023-04-16T04:18:14.555Z,94681.00
2023-04-16T04:19:14.675Z,94681.00
2023-04-16T04:20:14.681Z,94683.00
2023-04-16T04:21:14.743Z,94681.00
2023-04-16T04:22:14.731Z,94685.00
2023-04-16T04:23:14.845Z,94685.00
2023-04-16T04:24:14.875Z,94687.00
2023-04-16T04:25:14.912Z,94689.00
2023-04-16T04:26:15.020Z,94693.00
2023-04-16T04:27:15.039Z,94693.00
2023-04-16T04:28:15.107Z,94695.00
2023-04-16T04:29:15.149Z,94693.00
2023-04-16T04:30:15.202Z,94691.00
2023-04-16T04:31:15.307Z,94693.00
2023-04-16T04:32:15.336Z,94691.00
2023-04-16T04:33:15.373Z,94693.00
2023-04-16T04:34:15.427Z,94695.00
2023-04-16T04:35:15.457Z,94697.00
2023-04-16T04:36:15.504Z,94697.00
2023-04-16T04:37:15.601Z,94701.00
2023-04-16T04:38:16.284Z,94701.00
2023-04-16T04:39:15.726Z,94703.00
2023-04-16T04:40:15.780Z,94703.00
2023-04-16T04:41:15.780Z,94703.00
2023-04-16T04:42:15.965Z,94705.00
2023-04-16T04:43:15.957Z,94705.00
2023-04-16T04:44:16.539Z,94707.00
2023-04-16T04:45:16.081Z,94707.00
2023-04-16T04:46:16.367Z,94711.00
2023-04-16T04:47:16.201Z,94713.00
2023-04-16T04:48:16.242Z,94713.00
2023-04-16T04:49:16.291Z,94715.00
2023-04-16T04:50:16.364Z,94715.00
2023-04-16T04:51:16.485Z,94717.00
2023-04-16T04:52:16.487Z,94715.00
2023-04-16T04:53:16.538Z,94715.00
2023-04-16T04:54:16.702Z,94715.00
2023-04-16T04:55:16.625Z,94719.00
2023-04-16T04:56:16.654Z,94715.00
2023-04-16T04:57:16.786Z,94717.00
2023-04-16T04:58:16.779Z,94717.00
2023-04-16T04:59:16.851Z,94719.00
2023-04-16T05:00:16.948Z,94719.00
2023-04-16T05:01:17.040Z,94720.00
2023-04-16T05:02:17.174Z,94720.00
2023-04-16T05:03:17.173Z,94720.00
2023-04-16T05:04:17.993Z,94720.00
2023-04-16T05:05:17.254Z,94720.00
2023-04-16T05:06:17.293Z,94722.00
2023-04-16T05:07:17.563Z,94720.00
2023-04-16T05:08:17.457Z,94724.00
2023-04-16T05:09:17.499Z,94724.00
2023-04-16T05:10:17.520Z,94724.00
2023-04-16T05:11:17.581Z,94726.00
2023-04-16T05:12:17.636Z,94728.00
2023-04-16T05:13:17.674Z,94728.00
2023-04-16T05:14:17.917Z,94730.00
2023-04-16T05:15:17.815Z,94730.00
2023-04-16T05:16:17.860Z,94732.00
2023-04-16T05:17:18.050Z,94732.00
2023-04-16T05:18:18.028Z,94730.00
2023-04-16T05:19:18.046Z,94732.00
2023-04-16T05:20:18.100Z,94732.00
2023-04-16T05:21:18.148Z,94734.00
2023-04-16T05:22:18.239Z,94736.00
2023-04-16T05:23:18.935Z,94736.00
2023-04-16T05:24:18.359Z,94738.00
2023-04-16T05:25:18.386Z,94738.00
2023-04-16T05:26:18.556Z,94738.00
2023-04-16T05:27:18.579Z,94742.00
2023-04-16T05:28:18.704Z,94742.00
2023-04-16T05:29:18.615Z,94742.00
2023-04-16T05:30:18.697Z,94744.00
2023-04-16T05:31:18.790Z,94744.00
2023-04-16T05:32:18.831Z,94746.00
2023-04-16T05:33:18.937Z,94748.00
2023-04-16T05:34:18.978Z,94748.00
2023-04-16T05:35:19.019Z,94750.00
2023-04-16T05:36:19.082Z,94752.00
2023-04-16T05:37:19.140Z,94756.00
2023-04-16T05:38:19.214Z,94756.00
2023-04-16T05:39:19.279Z,94758.00
2023-04-16T05:40:19.363Z,94756.00
2023-04-16T05:41:19.373Z,94758.00
2023-04-16T05:42:19.439Z,94758.00
2023-04-16T05:43:19.520Z,94760.00
2023-04-16T05:44:19.539Z,94762.00
2023-04-16T05:45:19.598Z,94762.00
2023-04-16T05:46:19.671Z,94762.00
2023-04-16T05:47:19.728Z,94762.00
2023-04-16T05:48:19.792Z,94758.00
2023-04-16T05:49:19.853Z,94760.00
2023-04-16T05:50:19.884Z,94762.00
2023-04-16T05:51:19.961Z,94764.00
2023-04-16T05:52:20.029Z,94766.00
2023-04-16T05:53:20.074Z,94764.00
2023-04-16T05:54:20.112Z,94766.00
2023-04-16T05:55:21.043Z,94766.00
2023-04-16T05:56:20.242Z,94767.00
2023-04-16T05:57:20.448Z,94767.00
2023-04-16T05:58:20.404Z,94769.00
2023-04-16T05:59:20.516Z,94771.00
2023-04-16T06:00:20.518Z,94771.00
2023-04-16T06:01:20.576Z,94773.00
2023-04-16T06:02:20.739Z,94775.00
2023-04-16T06:03:20.824Z,94775.00
2023-04-16T06:04:20.808Z,94775.00
2023-04-16T06:05:20.825Z,94775.00
2023-04-16T06:06:20.866Z,94777.00
2023-04-16T06:07:20.960Z,94777.00
2023-04-16T06:08:21.001Z,94781.00
2023-04-16T06:09:21.043Z,94779.00
2023-04-16T06:10:21.129Z,94779.00
2023-04-16T06:11:21.169Z,94781.00
2023-04-16T06:12:21.380Z,94779.00
2023-04-16T06:13:21.360Z,94779.00
2023-04-16T06:14:21.354Z,94781.00
2023-04-16T06:15:21.417Z,94779.00
2023-04-16T06:16:21.477Z,94781.00
2023-04-16T06:17:21.489Z,94781.00
2023-04-16T06:18:21.597Z,94781.00
2023-04-16T06:19:21.641Z,94781.00
2023-04-16T06:20:21.717Z,94783.00
2023-04-16T06:21:21.751Z,94785.00
2023-04-16T06:22:21.790Z,94783.00
2023-04-16T06:23:21.855Z,94785.00
2023-04-16T06:24:21.948Z,94785.00
2023-04-16T06:25:21.966Z,94785.00
2023-04-16T06:26:22.029Z,94785.00
2023-04-16T06:27:22.136Z,94783.00
2023-04-16T06:28:22.105Z,94783.00
2023-04-16T06:29:25.880Z,94783.00
2023-04-16T06:30:23.177Z,94783.00
2023-04-16T06:31:22.339Z,94785.00
2023-04-16T06:32:22.187Z,94783.00
2023-04-16T06:33:22.173Z,94785.00
2023-04-16T06:34:22.182Z,94787.00
2023-04-16T06:35:22.153Z,94785.00
2023-04-16T06:36:22.139Z,94785.00
2023-04-16T06:37:22.205Z,94789.00
2023-04-16T06:38:22.338Z,94789.00
2023-04-16T06:39:22.268Z,94789.00
2023-04-16T06:40:22.329Z,94789.00
2023-04-16T06:41:22.378Z,94787.00
2023-04-16T06:42:22.468Z,94787.00
2023-04-16T06:43:22.493Z,94783.00
2023-04-16T06:44:22.580Z,94783.00
2023-04-16T06:45:23.511Z,94783.00
2023-04-16T06:46:22.788Z,94783.00
2023-04-16T06:47:22.782Z,94783.00
2023-04-16T06:48:22.847Z,94785.00
2023-04-16T06:49:22.870Z,94785.00
2023-04-16T06:50:22.918Z,94785.00
2023-04-16T06:51:22.957Z,94783.00
2023-04-16T06:52:23.034Z,94781.00
2023-04-16T06:53:23.064Z,94779.00
2023-04-16T06:54:23.144Z,94779.00
2023-04-16T06:55:23.185Z,94783.00
2023-04-16T06:56:23.399Z,94785.00
2023-04-16T06:57:23.306Z,94785.00
2023-04-16T06:58:23.384Z,94787.00
2023-04-16T06:59:23.419Z,94785.00
2023-04-16T07:00:23.621Z,94783.00
2023-04-16T07:01:23.562Z,94785.00
2023-04-16T07:02:23.751Z,94779.00
2023-04-16T07:03:23.807Z,94781.00
2023-04-16T07:04:23.715Z,94785.00
2023-04-16T07:05:23.876Z,94783.00
2023-04-16T07:06:23.798Z,94783.00
2023-04-16T07:07:23.841Z,94789.00
2023-04-16T07:08:23.886Z,94789.00
2023-04-16T07:09:24.006Z,94789.00
2023-04-16T07:10:24.004Z,94791.00
2023-04-16T07:11:24.050Z,94791.00
2023-04-16T07:12:24.130Z,94793.00
2023-04-16T07:13:24.249Z,94797.00
2023-04-16T07:14:24.246Z,94793.00
2023-04-16T07:15:24.257Z,94795.00
2023-04-16T07:16:24.359Z,94795.00
2023-04-16T07:17:24.332Z,94793.00
2023-04-16T07:18:24.435Z,94795.00
2023-04-16T07:19:24.397Z,94793.00
2023-04-16T07:20:24.534Z,94795.00
2023-04-16T07:21:24.709Z,94793.00
2023-04-16T07:22:24.560Z,94793.00
2023-04-16T07:23:24.639Z,94797.00
2023-04-16T07:24:24.709Z,94797.00
2023-04-16T07:25:24.713Z,94795.00
2023-04-16T07:26:24.743Z,94797.00
2023-04-16T07:27:24.835Z,94799.00
2023-04-16T07:28:24.841Z,94797.00
2023-04-16T07:29:24.921Z,94801.00
2023-04-16T07:30:25.044Z,94801.00
2023-04-16T07:31:25.098Z,94801.00
2023-04-16T07:32:25.351Z,94801.00
2023-04-16T07:33:25.079Z,94805.00
2023-04-16T07:34:25.199Z,94805.00
2023-04-16T07:35:25.224Z,94803.00
2023-04-16T07:36:25.313Z,94807.00
2023-04-16T07:37:25.404Z,94807.00
2023-04-16T07:38:25.342Z,94809.00
2023-04-16T07:39:25.455Z,94809.00
2023-04-16T07:40:25.501Z,94809.00
2023-04-16T07:41:25.548Z,94811.00
2023-04-16T07:42:25.622Z,94813.00
2023-04-16T07:43:25.614Z,94813.00
2023-04-16T07:44:25.627Z,94813.00
2023-04-16T07:45:25.747Z,94813.00
2023-04-16T07:46:30.516Z,94814.00
2023-04-16T07:47:26.860Z,94816.00
2023-04-16T07:48:25.712Z,94816.00
2023-04-16T07:49:25.811Z,94816.00
2023-04-16T07:50:25.796Z,94814.00
2023-04-16T07:51:25.673Z,94816.00
2023-04-16T07:52:25.738Z,94816.00
2023-04-16T07:53:25.727Z,94818.00
2023-04-16T07:54:27.344Z,94816.00
2023-04-16T07:55:25.743Z,94818.00
2023-04-16T07:56:25.651Z,94822.00
2023-04-16T07:57:25.731Z,94822.00
2023-04-16T07:58:25.659Z,94822.00
2023-04-16T07:59:26.114Z,94820.00
2023-04-16T08:00:25.653Z,94822.00
2023-04-16T08:01:25.657Z,94820.00
2023-04-16T08:02:25.805Z,94820.00
2023-04-16T08:03:25.888Z,94816.00
2023-04-16T08:04:26.432Z,94820.00
2023-04-16T08:05:25.629Z,94818.00
2023-04-16T08:06:25.575Z,94822.00
2023-04-16T08:07:25.591Z,94822.00
2023-04-16T08:08:26.046Z,94822.00
2023-04-16T08:09:25.603Z,94824.00
2023-04-16T08:10:25.540Z,94826.00
2023-04-16T08:11:25.567Z,94828.00
2023-04-16T08:12:25.568Z,94828.00
2023-04-16T08:13:25.577Z,94828.00
2023-04-16T08:14:25.540Z,94826.00
2023-04-16T08:15:25.543Z,94832.00
2023-04-16T08:16:25.673Z,94830.00
2023-04-16T08:17:25.547Z,94830.00
2023-04-16T08:18:25.559Z,94834.00
2023-04-16T08:19:25.535Z,94834.00
2023-04-16T08:20:25.522Z,94834.00
2023-04-16T08:21:25.522Z,94838.00
2023-04-16T08:22:25.450Z,94838.00
2023-04-16T08:23:25.530Z,94838.00
2023-04-16T08:24:25.439Z,94840.00
2023-04-16T08:25:25.454Z,94840.00
2023-04-16T08:26:25.426Z,94842.00
2023-04-16T08:27:25.475Z,94842.00
2023-04-16T08:28:25.466Z,94842.00
2023-04-16T08:29:25.424Z,94840.00
2023-04-16T08:31:44.394Z,94842.00
2023-04-16T08:32:44.421Z,94842.00
2023-04-16T08:33:44.342Z,94842.00
2023-04-16T08:34:44.457Z,94840.00
2023-04-16T08:35:44.312Z,94844.00
2023-04-16T08:36:44.418Z,94848.00
2023-04-16T08:37:44.295Z,94848.00
2023-04-16T08:38:44.336Z,94846.00
2023-04-16T08:39:44.367Z,94850.00
2023-04-16T08:40:44.318Z,94850.00
2023-04-16T08:41:44.288Z,94850.00
2023-04-16T08:42:44.320Z,94850.00
2023-04-16T08:43:44.288Z,94850.00
2023-04-16T08:44:44.267Z,94854.00
2023-04-16T08:45:44.326Z,94854.00
2023-04-16T08:46:44.510Z,94856.00
2023-04-16T08:47:44.289Z,94856.00
2023-04-16T08:48:44.231Z,94856.00
2023-04-16T08:49:44.432Z,94856.00
2023-04-16T08:50:44.246Z,94856.00
2023-04-16T08:51:44.214Z,94856.00
2023-04-16T08:52:44.208Z,94856.00
2023-04-16T08:53:44.223Z,94858.00
2023-04-16T08:54:44.167Z,94858.00
2023-04-16T08:55:44.192Z,94856.00
2023-04-16T08:56:44.236Z,94858.00
2023-04-16T08:57:44.204Z,94856.00
2023-04-16T08:58:44.160Z,94858.00
2023-04-16T08:59:44.206Z,94856.00
2023-04-16T09:00:44.152Z,94856.00
2023-04-16T09:01:44.211Z,94856.00
2023-04-16T09:02:44.357Z,94858.00
2023-04-16T09:03:44.358Z,94856.00
2023-04-16T09:04:44.163Z,94858.00
2023-04-16T09:05:44.105Z,94858.00
2023-04-16T09:06:44.133Z,94856.00
2023-04-16T09:07:44.127Z,94858.00
2023-04-16T09:08:44.802Z,94856.00
2023-04-16T09:09:44.077Z,94856.00
2023-04-16T09:10:44.083Z,94860.00
2023-04-16T09:11:44.110Z,94858.00
2023-04-16T09:12:44.097Z,94858.00
2023-04-16T09:13:44.090Z,94862.00
2023-04-16T09:14:44.086Z,94860.00
2023-04-16T09:15:44.101Z,94860.00
2023-04-16T09:16:44.111Z,94862.00
2023-04-16T09:17:44.272Z,94862.00
2023-04-16T09:18:44.125Z,94862.00
2023-04-16T09:19:44.127Z,94860.00
2023-04-16T09:20:44.135Z,94860.00
2023-04-16T09:21:44.244Z,94864.00
2023-04-16T09:22:44.254Z,94864.00
2023-04-16T09:23:44.251Z,94864.00
2023-04-16T09:24:44.450Z,94869.00
2023-04-16T09:25:44.307Z,94866.00
2023-04-16T09:26:44.933Z,94866.00
2023-04-16T09:27:44.333Z,94866.00
2023-04-16T09:28:44.401Z,94864.00
2023-04-16T09:29:44.513Z,94866.00
2023-04-16T09:30:44.453Z,94862.00
2023-04-16T09:31:44.713Z,94864.00
2023-04-16T09:32:44.551Z,94864.00
2023-04-16T09:33:44.600Z,94866.00
2023-04-16T09:34:44.606Z,94864.00
2023-04-16T09:35:44.648Z,94864.00
2023-04-16T09:36:44.666Z,94862.00
2023-04-16T09:37:44.656Z,94864.00
2023-04-16T09:38:44.677Z,94862.00
2023-04-16T09:39:44.749Z,94862.00
2023-04-16T09:40:44.760Z,94862.00
2023-04-16T09:41:44.719Z,94860.00
2023-04-16T09:42:44.802Z,94860.00
2023-04-16T09:43:44.918Z,94860.00
2023-04-16T09:44:44.816Z,94860.00
2023-04-16T09:45:44.847Z,94858.00
2023-04-16T09:46:44.839Z,94856.00
2023-04-16T09:47:44.903Z,94856.00
2023-04-16T09:48:44.960Z,94856.00
2023-04-16T09:49:44.931Z,94856.00
2023-04-16T09:50:44.928Z,94856.00
2023-04-16T09:51:44.989Z,94858.00
2023-04-16T09:52:45.038Z,94860.00
2023-04-16T09:53:44.954Z,94858.00
2023-04-16T09:54:44.980Z,94860.00
2023-04-16T09:55:46.914Z,94858.00
2023-04-16T09:56:44.999Z,94858.00
2023-04-16T09:57:45.052Z,94858.00
2023-04-16T09:58:45.040Z,94856.00
2023-04-16T09:59:45.150Z,94858.00
2023-04-16T10:00:45.062Z,94858.00
2023-04-16T10:01:45.305Z,94856.00
2023-04-16T10:02:45.230Z,94858.00
2023-04-16T10:03:45.300Z,94854.00
2023-04-16T10:04:45.209Z,94856.00
2023-04-16T10:05:45.089Z,94850.00
2023-04-16T10:06:45.071Z,94850.00
2023-04-16T10:07:45.093Z,94852.00
2023-04-16T10:08:45.120Z,94852.00
2023-04-16T10:09:45.097Z,94850.00
2023-04-16T10:10:45.211Z,94848.00
2023-04-16T10:11:45.114Z,94852.00
2023-04-16T10:12:45.175Z,94850.00
2023-04-16T10:13:45.132Z,94852.00
2023-04-16T10:14:45.249Z,94852.00
2023-04-16T10:15:45.221Z,94852.00
2023-04-16T10:16:45.378Z,94852.00
2023-04-16T10:17:45.899Z,94850.00
2023-04-16T10:18:45.156Z,94854.00
2023-04-16T10:19:45.288Z,94854.00
2023-04-16T10:20:45.172Z,94850.00
2023-04-16T10:21:45.214Z,94848.00
2023-04-16T10:22:45.256Z,94848.00
2023-04-16T10:23:45.287Z,94846.00
2023-04-16T10:24:45.305Z,94846.00
2023-04-16T10:25:45.190Z,94846.00
2023-04-16T10:26:45.203Z,94846.00
2023-04-16T10:27:45.142Z,94848.00
2023-04-16T10:28:45.156Z,94846.00
2023-04-16T10:29:45.150Z,94848.00
2023-04-16T10:30:45.217Z,94848.00
2023-04-16T10:31:45.186Z,94848.00
2023-04-16T10:32:45.318Z,94848.00
2023-04-16T10:33:45.193Z,94846.00
2023-04-16T10:34:45.187Z,94850.00
2023-04-16T10:35:46.871Z,94848.00
2023-04-16T10:36:46.200Z,94848.00
2023-04-16T10:37:45.243Z,94854.00
2023-04-16T10:38:45.204Z,94850.00
2023-04-16T10:39:45.197Z,94850.00
2023-04-16T10:40:45.128Z,94852.00
2023-04-16T10:41:45.247Z,94852.00
2023-04-16T10:42:45.116Z,94850.00
2023-04-16T10:43:45.129Z,94848.00
2023-04-16T10:44:45.592Z,94848.00
2023-04-16T10:45:45.171Z,94846.00
2023-04-16T10:46:45.111Z,94844.00
2023-04-16T10:47:45.164Z,94844.00
2023-04-16T10:49:45.118Z,94842.00
2023-04-16T10:50:45.108Z,94846.00
2023-04-16T10:51:45.105Z,94844.00
2023-04-16T10:52:45.075Z,94844.00
2023-04-16T10:53:45.198Z,94844.00
2023-04-16T10:54:45.062Z,94846.00
2023-04-16T10:55:45.093Z,94848.00
2023-04-16T10:56:45.027Z,94848.00
2023-04-16T10:57:45.109Z,94846.00
2023-04-16T10:58:45.056Z,94846.00
2023-04-16T10:59:45.042Z,94848.00
2023-04-16T11:00:45.021Z,94848.00
2023-04-16T11:01:45.066Z,94846.00
2023-04-16T11:02:45.193Z,94846.00
2023-04-16T11:03:46.032Z,94844.00
2023-04-16T11:04:45.220Z,94844.00
2023-04-16T11:05:45.024Z,94844.00
2023-04-16T11:06:44.995Z,94844.00
2023-04-16T11:07:45.000Z,94842.00
2023-04-16T11:08:53.890Z,94846.00
2023-04-16T11:09:46.126Z,94844.00
2023-04-16T11:10:45.061Z,94846.00
2023-04-16T11:11:44.997Z,94846.00
2023-04-16T11:12:45.060Z,94846.00
2023-04-16T11:13:44.956Z,94844.00
2023-04-16T11:14:44.931Z,94846.00
2023-04-16T11:15:45.004Z,94844.00
2023-04-16T11:16:44.954Z,94846.00
2023-04-16T11:17:44.965Z,94846.00
2023-04-16T11:18:50.729Z,94844.00
2023-04-16T11:19:45.901Z,94848.00
2023-04-16T11:20:44.948Z,94846.00
2023-04-16T11:21:44.959Z,94846.00
2023-04-16T11:22:44.863Z,94846.00
2023-04-16T11:23:44.892Z,94844.00
2023-04-16T11:24:44.985Z,94846.00
2023-04-16T11:25:44.880Z,94846.00
2023-04-16T11:26:44.872Z,94846.00
2023-04-16T11:27:44.875Z,94848.00
2023-04-16T11:28:44.821Z,94848.00
2023-04-16T11:29:47.472Z,94850.00
2023-04-16T11:30:44.810Z,94850.00
2023-04-16T11:31:44.845Z,94848.00
2023-04-16T11:32:44.899Z,94846.00
2023-04-16T11:33:44.832Z,94850.00
2023-04-16T11:34:45.403Z,94850.00
2023-04-16T11:35:44.777Z,94852.00
2023-04-16T11:36:44.797Z,94850.00
2023-04-16T11:37:44.807Z,94850.00
2023-04-16T11:38:44.804Z,94852.00
2023-04-16T11:39:44.772Z,94850.00
2023-04-16T11:40:44.787Z,94848.00
2023-04-16T11:41:45.417Z,94848.00
2023-04-16T11:42:45.132Z,94846.00
2023-04-16T11:43:44.787Z,94848.00
2023-04-16T11:44:44.744Z,94848.00
2023-04-16T11:45:44.743Z,94848.00
2023-04-16T11:46:44.723Z,94844.00